Terminal Aerodrome Forecast
Issued by NWS

Home | Current Version | Previous Version | Text Only | Print | Product List | Glossary On
Versions: 1 2 3 4 5 6 7 8 9 10 11 12 13 14 15 16 17 18
000
FTUS43 KDVN 161100
TAFCID
TAF
KCID 161139Z 1612/1712 14014KT P6SM BKN100
     FM161400 14022G30KT P6SM BKN120
     FM161700 17025G35KT P6SM BKN150
     FM170000 15013G23KT P6SM BKN060
     FM170400 23012KT P6SM -RA BKN050
     FM170800 28010KT P6SM BKN250=

USA.gov is the U.S. government's official web portal to all federal, state and local government web resources and services.